createdAt,value
2018-09-06T00:00:03.392Z,10.23
2018-09-06T00:02:31.768Z,8.78
2018-09-06T00:05:00.298Z,9.05
2018-09-06T00:07:28.564Z,11.70
2018-09-06T00:09:56.955Z,13.38
2018-09-06T00:12:25.341Z,10.25
2018-09-06T00:14:53.633Z,9.05
2018-09-06T00:17:22.005Z,9.73
2018-09-06T00:19:50.424Z,8.58
2018-09-06T00:22:18.760Z,9.25
2018-09-06T00:24:47.149Z,8.30
2018-09-06T00:27:15.541Z,10.05
2018-09-06T00:29:45.000Z,10.03
2018-09-06T00:32:14.219Z,9.30
2018-09-06T00:34:42.597Z,9.45
2018-09-06T00:37:10.982Z,7.92
2018-09-06T00:39:39.343Z,9.30
2018-09-06T00:42:07.695Z,8.85
2018-09-06T00:44:36.131Z,8.08
2018-09-06T08:06:37.330Z,11.97
2018-09-06T08:09:09.046Z,10.58
2018-09-06T08:11:38.105Z,10.80
2018-09-06T08:14:06.515Z,8.95
2018-09-06T08:16:37.254Z,13.03
2018-09-06T08:19:06.688Z,11.20
2018-09-06T08:21:37.173Z,9.55
2018-09-06T08:24:06.513Z,10.68
2018-09-06T08:26:35.749Z,9.58
2018-09-06T08:29:04.993Z,9.65
2018-09-06T08:31:34.668Z,11.40
2018-09-06T08:34:04.874Z,9.33
2018-09-06T08:36:33.272Z,8.15
2018-09-06T08:39:02.977Z,7.08
2018-09-06T08:41:31.301Z,10.13
2018-09-06T08:43:59.670Z,9.38
2018-09-06T08:46:28.013Z,10.23
2018-09-06T08:48:56.424Z,9.78
2018-09-06T08:51:25.035Z,7.53
2018-09-06T08:53:53.352Z,11.28
2018-09-06T08:56:21.682Z,9.75
2018-09-06T08:58:50.076Z,7.62
2018-09-06T09:01:23.929Z,7.35
2018-09-06T09:03:52.310Z,8.05
2018-09-06T09:06:21.283Z,11.28
2018-09-06T09:08:49.779Z,9.68
2018-09-06T09:11:18.242Z,7.15
2018-09-06T09:13:46.649Z,8.58
2018-09-06T09:16:15.091Z,9.65
2018-09-06T09:18:43.428Z,8.25
2018-09-06T09:21:12.953Z,6.92
2018-09-06T09:23:41.338Z,8.75
2018-09-06T09:26:10.286Z,8.63
2018-09-06T09:28:38.730Z,7.20
2018-09-06T09:31:07.746Z,9.10
2018-09-06T09:33:36.080Z,7.33
2018-09-06T09:36:04.898Z,7.55
2018-09-06T09:38:33.294Z,10.00
2018-09-06T09:41:01.964Z,7.30
2018-09-06T09:43:30.447Z,6.58
2018-09-06T09:48:26.480Z,6.33
2018-09-06T09:50:54.882Z,6.55
2018-09-06T09:53:23.182Z,7.85
2018-09-06T09:55:51.498Z,8.68
2018-09-06T09:58:19.867Z,5.50
2018-09-06T10:00:48.268Z,6.40
2018-09-06T10:03:21.864Z,7.70
2018-09-06T10:05:54.454Z,6.03
2018-09-06T10:08:29.151Z,5.87
2018-09-06T10:10:57.572Z,8.03
2018-09-06T10:13:26.019Z,6.65
2018-09-06T10:15:54.369Z,5.45
2018-09-06T10:18:22.763Z,7.25
2018-09-06T10:20:51.361Z,6.55
2018-09-06T10:23:19.783Z,8.98
2018-09-06T10:25:48.128Z,6.92
2018-09-06T10:28:16.576Z,6.12
2018-09-06T10:30:44.993Z,6.92
2018-09-06T10:33:13.346Z,6.45
2018-09-06T10:35:41.730Z,6.42
2018-09-06T10:38:10.600Z,6.72
2018-09-06T10:41:24.113Z,7.25
2018-09-06T10:43:52.733Z,6.12
2018-09-06T10:46:22.129Z,9.78
2018-09-06T10:48:50.451Z,8.63
2018-09-06T10:51:18.846Z,11.55
2018-09-06T10:53:47.217Z,8.28
2018-09-06T10:56:16.823Z,11.22
2018-09-06T10:58:45.269Z,7.22
2018-09-06T11:01:19.037Z,5.97
2018-09-06T11:03:47.468Z,7.80
2018-09-06T11:06:15.933Z,7.10
2018-09-06T11:08:44.295Z,7.72
2018-09-06T11:11:12.744Z,5.53
2018-09-06T11:13:41.231Z,6.05
2018-09-06T11:16:09.676Z,6.50
2018-09-06T11:18:38.132Z,7.97
2018-09-06T11:21:06.627Z,7.17
2018-09-06T11:23:34.957Z,9.13
2018-09-06T11:26:03.381Z,8.15
2018-09-06T11:28:31.760Z,6.17
2018-09-06T11:31:00.636Z,7.72
2018-09-06T11:33:28.998Z,8.43
2018-09-06T11:36:05.520Z,11.85
2018-09-06T11:38:34.873Z,8.45
2018-09-06T11:41:05.162Z,7.40
2018-09-06T11:43:34.471Z,7.72
2018-09-06T11:46:04.825Z,8.80
2018-09-06T11:48:34.561Z,6.87
2018-09-06T11:51:03.826Z,9.00
2018-09-06T11:53:32.193Z,6.33
2018-09-06T11:56:00.573Z,8.23
2018-09-06T11:58:29.042Z,10.53
2018-09-06T12:00:57.391Z,7.90
2018-09-06T12:03:25.728Z,8.33
2018-09-06T12:05:54.093Z,7.53
2018-09-06T12:08:22.533Z,9.75
2018-09-06T12:10:50.866Z,8.95
2018-09-06T12:13:19.274Z,8.28
2018-09-06T12:15:47.787Z,7.58
2018-09-06T12:18:16.172Z,7.80
2018-09-06T12:20:44.532Z,7.70
2018-09-06T12:23:12.945Z,5.55
2018-09-06T12:25:41.364Z,7.62
2018-09-06T12:28:09.726Z,7.42
2018-09-06T12:30:38.207Z,8.38
2018-09-06T12:33:06.626Z,6.55
2018-09-06T12:35:35.931Z,6.17
2018-09-06T12:38:04.335Z,7.60
2018-09-06T12:40:32.988Z,17.73
2018-09-06T12:43:01.404Z,8.00
2018-09-06T12:45:29.782Z,8.28
2018-09-06T12:47:58.196Z,6.80
2018-09-06T12:50:26.609Z,8.13
2018-09-06T12:52:54.963Z,9.73
2018-09-06T12:55:23.343Z,7.10
2018-09-06T12:57:51.718Z,12.25
2018-09-06T13:00:20.079Z,8.15
2018-09-06T13:02:48.526Z,8.50
2018-09-06T13:05:16.913Z,9.10
2018-09-06T13:07:45.220Z,6.80
2018-09-06T13:10:13.852Z,7.53
2018-09-06T13:12:42.130Z,7.58
2018-09-06T13:15:10.597Z,9.13
2018-09-06T13:17:39.042Z,14.78
2018-09-06T13:20:07.523Z,38.85
2018-09-06T13:22:36.207Z,15.63
2018-09-06T13:25:04.586Z,7.80
2018-09-06T13:27:33.367Z,9.40
2018-09-06T13:30:02.185Z,7.15
2018-09-06T13:32:30.757Z,16.15
2018-09-06T13:34:59.277Z,9.15
2018-09-06T13:37:27.645Z,12.50
2018-09-06T13:39:56.105Z,7.97
2018-09-06T13:42:24.737Z,12.00
2018-09-06T13:44:53.953Z,8.05
2018-09-06T13:47:22.823Z,9.20
2018-09-06T13:49:51.385Z,9.23
2018-09-06T13:52:19.864Z,25.80
2018-09-06T13:54:48.171Z,24.50
2018-09-06T13:57:16.557Z,25.27
2018-09-06T13:59:44.989Z,21.45
2018-09-06T14:02:13.441Z,62.90
2018-09-06T14:04:42.974Z,19.07
2018-09-06T14:07:12.955Z,13.90
2018-09-06T14:09:41.423Z,8.80
2018-09-06T14:12:09.748Z,10.95
2018-09-06T14:14:39.419Z,10.78
2018-09-06T14:17:07.764Z,11.30
2018-09-06T14:19:36.146Z,10.53
2018-09-06T14:22:04.860Z,9.85
2018-09-06T14:24:33.326Z,10.80
2018-09-06T14:27:01.788Z,11.83
2018-09-06T14:29:30.138Z,13.45
2018-09-06T14:31:58.551Z,13.32
2018-09-06T14:34:26.865Z,11.57
2018-09-06T14:36:55.265Z,11.50
2018-09-06T14:39:23.628Z,9.38
2018-09-06T14:41:52.024Z,13.22
2018-09-06T14:44:20.387Z,10.15
2018-09-06T14:46:48.770Z,9.15
2018-09-06T14:49:17.122Z,9.65
2018-09-06T14:51:45.480Z,10.70
2018-09-06T14:54:13.887Z,12.82
2018-09-06T14:56:42.257Z,10.00
2018-09-06T14:59:10.563Z,10.75
2018-09-06T15:01:39.198Z,11.63
2018-09-06T15:04:07.810Z,12.30
2018-09-06T15:06:36.213Z,12.45
2018-09-06T15:09:06.534Z,15.70
2018-09-06T15:11:34.961Z,17.45
2018-09-06T15:14:03.481Z,16.20
2018-09-06T15:16:31.822Z,18.55
2018-09-06T15:19:00.196Z,14.68
2018-09-06T15:21:28.817Z,14.18
2018-09-06T15:23:57.159Z,13.85
2018-09-06T15:26:25.535Z,11.18
2018-09-06T15:28:54.159Z,11.93
2018-09-06T15:31:22.726Z,15.78
2018-09-06T15:33:51.206Z,11.38
2018-09-06T15:36:19.592Z,13.62
2018-09-06T15:38:48.010Z,10.23
2018-09-06T15:41:16.363Z,11.78
2018-09-06T15:43:44.747Z,17.95
2018-09-06T15:46:13.100Z,12.73
2018-09-06T15:48:41.478Z,12.05
2018-09-06T15:51:09.876Z,16.97
2018-09-06T15:53:38.612Z,13.70
2018-09-06T15:56:07.200Z,14.47
2018-09-06T15:58:35.594Z,18.98
2018-09-06T16:01:04.217Z,21.42
2018-09-06T16:03:32.916Z,15.83
2018-09-06T16:06:01.311Z,16.52
2018-09-06T16:08:29.705Z,12.93
2018-09-06T16:10:58.127Z,16.20
2018-09-06T16:13:27.718Z,21.57
2018-09-06T16:15:56.133Z,16.55
2018-09-06T16:18:24.541Z,16.55
2018-09-06T16:20:52.936Z,15.18
2018-09-06T16:23:21.345Z,13.93
2018-09-06T16:25:49.658Z,15.23
2018-09-06T16:28:17.996Z,13.75
2018-09-06T16:30:46.807Z,13.58
2018-09-06T16:33:15.372Z,15.10
2018-09-06T16:35:43.798Z,14.13
2018-09-06T16:38:12.148Z,14.68
2018-09-06T16:40:40.502Z,12.93
2018-09-06T16:43:08.853Z,15.63
2018-09-06T16:45:37.235Z,15.93
2018-09-06T16:48:05.727Z,19.30
2018-09-06T16:50:34.092Z,26.73
2018-09-06T16:53:02.492Z,16.80
2018-09-06T16:55:30.896Z,38.35
2018-09-06T16:57:59.337Z,16.05
2018-09-06T17:00:27.770Z,15.63
2018-09-06T17:02:56.164Z,18.55
2018-09-06T17:05:27.239Z,15.50
2018-09-06T17:07:55.730Z,15.60
2018-09-06T17:10:24.152Z,17.77
2018-09-06T17:12:53.287Z,16.07
2018-09-06T17:15:21.671Z,17.25
2018-09-06T17:17:50.070Z,17.27
2018-09-06T17:20:18.440Z,18.75
2018-09-06T17:22:46.856Z,19.25
2018-09-06T17:25:15.259Z,19.80
2018-09-06T17:27:44.654Z,20.25
2018-09-06T17:30:13.276Z,19.73
2018-09-06T22:44:07.161Z,25.45
2018-09-06T22:46:35.591Z,23.02
2018-09-06T22:49:04.110Z,26.80
2018-09-06T22:51:32.430Z,27.85
2018-09-06T22:54:00.808Z,24.87
2018-09-06T22:56:29.187Z,27.07
2018-09-06T22:59:04.972Z,25.57
2018-09-06T23:01:34.834Z,22.87
2018-09-06T23:04:03.984Z,26.93
2018-09-06T23:06:32.421Z,27.73
2018-09-06T23:09:00.810Z,29.27
2018-09-06T23:11:29.201Z,26.15
2018-09-06T23:13:57.533Z,28.55
2018-09-06T23:16:25.933Z,28.05
2018-09-06T23:18:54.457Z,26.37
2018-09-06T23:21:22.773Z,27.87
2018-09-06T23:23:51.439Z,27.00
2018-09-06T23:26:19.822Z,32.67
2018-09-06T23:28:48.182Z,28.23
2018-09-06T23:31:16.526Z,27.73
2018-09-06T23:33:44.924Z,25.75
2018-09-06T23:36:13.296Z,29.52
2018-09-06T23:38:41.708Z,26.42
2018-09-06T23:41:10.136Z,24.80
2018-09-06T23:43:38.536Z,26.48
2018-09-06T23:46:06.984Z,25.90
2018-09-06T23:48:35.488Z,27.30
2018-09-06T23:51:05.100Z,22.25
2018-09-06T23:53:33.413Z,26.30
2018-09-06T23:56:01.805Z,23.10
2018-09-06T23:58:30.238Z,23.02
